createdAt,value
2023-01-12T00:02:55.976Z,76.01
2023-01-12T00:06:01.106Z,74.76
2023-01-12T00:09:07.832Z,74.92
2023-01-12T00:12:12.928Z,75.07
2023-01-12T00:15:16.796Z,74.97
2023-01-12T00:18:20.538Z,74.44
2023-01-12T00:21:24.189Z,73.98
2023-01-12T00:24:31.306Z,74.22
2023-01-12T00:27:34.996Z,73.69
2023-01-12T00:30:38.815Z,73.80
2023-01-12T00:33:42.580Z,74.44
2023-01-12T00:36:47.103Z,73.57
2023-01-12T00:40:01.800Z,73.87
2023-01-12T00:43:19.639Z,73.92
2023-01-12T00:46:31.428Z,73.28
2023-01-12T00:49:35.200Z,73.54
2023-01-12T00:52:38.946Z,73.97
2023-01-12T00:55:44.103Z,73.80
2023-01-12T00:58:48.623Z,74.02
2023-01-12T01:01:52.275Z,73.81
2023-01-12T01:04:55.957Z,73.31
2023-01-12T01:07:59.713Z,73.38
2023-01-12T01:11:05.874Z,73.58
2023-01-12T01:14:09.935Z,74.16
2023-01-12T01:17:13.633Z,73.28
2023-01-12T01:20:17.534Z,74.62
2023-01-12T01:23:21.410Z,73.87
2023-01-12T01:26:26.748Z,73.60
2023-01-12T01:29:30.237Z,74.64
2023-01-12T01:32:33.845Z,73.93
2023-01-12T01:35:37.617Z,74.38
2023-01-12T01:38:42.175Z,74.29
2023-01-12T01:41:48.282Z,73.67
2023-01-12T01:44:55.097Z,73.00
2023-01-12T01:48:03.441Z,72.86
2023-01-12T01:51:11.443Z,73.00
2023-01-12T01:54:16.151Z,72.49
2023-01-12T01:57:23.482Z,72.91
2023-01-12T02:00:27.713Z,74.40
2023-01-12T02:03:36.578Z,73.84
2023-01-12T02:06:40.859Z,75.39
2023-01-12T02:09:45.833Z,75.54
2023-01-12T02:13:09.532Z,75.33
2023-01-12T02:16:22.123Z,75.29
2023-01-12T02:19:50.218Z,75.19
2023-01-12T02:23:17.620Z,75.90
2023-01-12T02:26:53.555Z,75.40
2023-01-12T02:30:38.536Z,75.16
2023-01-12T02:33:56.188Z,75.76
2023-01-12T02:37:08.964Z,75.14
2023-01-12T02:40:22.291Z,74.41
2023-01-12T02:43:29.089Z,74.73
2023-01-12T02:46:34.193Z,75.73
2023-01-12T02:49:45.955Z,74.85
2023-01-12T02:52:56.589Z,75.28
2023-01-12T02:56:02.232Z,75.89
2023-01-12T02:59:13.410Z,75.80
2023-01-12T03:02:20.549Z,75.86
2023-01-12T03:05:25.640Z,75.71
2023-01-12T03:08:31.953Z,75.76
2023-01-12T03:11:40.521Z,75.48
2023-01-12T03:14:47.447Z,75.99
2023-01-12T03:17:56.044Z,76.09
2023-01-12T03:21:06.681Z,76.50
2023-01-12T03:24:14.621Z,77.11
2023-01-12T03:27:23.516Z,76.44
2023-01-12T03:30:33.165Z,76.84
2023-01-12T03:33:37.447Z,76.77
2023-01-12T03:36:49.874Z,76.83
2023-01-12T03:40:02.636Z,77.57
2023-01-12T03:43:14.024Z,77.11
2023-01-12T03:46:23.150Z,77.95
2023-01-12T03:49:32.468Z,79.65
2023-01-12T03:52:40.890Z,78.93
2023-01-12T03:55:46.611Z,77.70
2023-01-12T03:58:51.803Z,77.93
2023-01-12T04:01:55.529Z,78.97
2023-01-12T04:04:59.160Z,79.05
2023-01-12T04:08:04.267Z,78.83
2023-01-12T04:11:22.737Z,78.39
2023-01-12T04:14:26.455Z,78.68
2023-01-12T04:17:30.166Z,79.48
2023-01-12T04:20:34.283Z,78.39
2023-01-12T04:23:38.217Z,78.13
2023-01-12T04:26:41.832Z,77.66
2023-01-12T04:29:46.126Z,78.29
2023-01-12T04:32:49.756Z,77.37
2023-01-12T04:35:53.361Z,77.89
2023-01-12T04:38:58.440Z,77.70
2023-01-12T04:42:02.048Z,77.32
2023-01-12T04:45:06.619Z,77.84
2023-01-12T04:48:12.422Z,77.19
2023-01-12T04:51:16.035Z,78.06
2023-01-12T04:54:21.165Z,76.24
2023-01-12T04:57:24.813Z,76.76
2023-01-12T05:00:28.778Z,76.34
2023-01-12T05:03:32.765Z,76.54
2023-01-12T05:06:36.297Z,76.02
2023-01-12T05:09:58.547Z,76.21
2023-01-12T05:13:02.013Z,75.34
2023-01-12T05:16:13.007Z,75.67
2023-01-12T05:19:16.822Z,74.79
2023-01-12T05:22:20.657Z,75.31
2023-01-12T05:25:27.060Z,75.52
2023-01-12T05:28:31.352Z,75.58
2023-01-12T05:31:36.222Z,76.59
2023-01-12T05:34:40.551Z,76.12
2023-01-12T05:37:44.149Z,75.97
2023-01-12T05:40:49.116Z,75.38
2023-01-12T05:43:52.023Z,75.24
2023-01-12T05:46:56.067Z,76.17
2023-01-12T05:49:59.800Z,76.34
2023-01-12T05:53:03.472Z,77.02
2023-01-12T05:56:13.541Z,76.60
2023-01-12T05:59:17.305Z,75.75
2023-01-12T06:02:21.837Z,76.13
2023-01-12T06:05:25.756Z,75.94
2023-01-12T06:08:29.885Z,75.47
2023-01-12T06:11:52.429Z,74.89
2023-01-12T06:14:56.078Z,75.06
2023-01-12T06:17:59.815Z,75.57
2023-01-12T06:21:03.668Z,76.04
2023-01-12T06:24:08.017Z,76.28
2023-01-12T06:27:13.115Z,75.54
2023-01-12T06:30:16.916Z,75.37
2023-01-12T06:33:20.605Z,75.17
2023-01-12T06:36:24.341Z,76.16
2023-01-12T06:39:28.165Z,76.31
2023-01-12T06:42:33.571Z,75.34
2023-01-12T06:45:37.306Z,76.38
2023-01-12T06:48:40.964Z,75.60
2023-01-12T06:51:44.863Z,76.01
2023-01-12T06:54:48.736Z,75.50
2023-01-12T06:57:53.923Z,75.59
2023-01-12T07:01:02.565Z,75.15
2023-01-12T07:04:06.591Z,75.52
2023-01-12T07:07:11.843Z,75.17
2023-01-12T07:10:15.623Z,75.86
2023-01-12T07:13:20.880Z,76.22
2023-01-12T07:16:24.646Z,76.15
2023-01-12T07:19:28.343Z,77.34
2023-01-12T07:22:32.256Z,77.54
2023-01-12T07:25:36.244Z,76.51
2023-01-12T07:28:43.044Z,76.40
2023-01-12T07:31:46.785Z,76.50
2023-01-12T07:34:50.483Z,75.36
2023-01-12T07:37:55.251Z,74.86
2023-01-12T07:41:00.481Z,75.16
2023-01-12T07:44:05.974Z,74.43
2023-01-12T07:47:09.929Z,74.38
2023-01-12T07:50:13.595Z,74.63
2023-01-12T07:53:17.293Z,75.23
2023-01-12T07:56:21.179Z,73.99
2023-01-12T07:59:27.711Z,73.77
2023-01-12T08:02:32.534Z,73.84
2023-01-12T08:05:37.787Z,73.65
2023-01-12T08:08:41.544Z,73.48
2023-01-12T08:11:45.168Z,72.75
2023-01-12T08:14:50.325Z,72.98
2023-01-12T08:17:58.533Z,72.73
2023-01-12T08:21:05.838Z,72.78
2023-01-12T08:24:10.836Z,73.40
2023-01-12T08:27:14.596Z,73.88
2023-01-12T08:30:23.056Z,73.07
2023-01-12T08:33:28.094Z,72.59
2023-01-12T08:36:33.109Z,71.57
2023-01-12T08:39:37.569Z,71.67
2023-01-12T08:42:41.273Z,71.24
2023-01-12T08:45:46.376Z,71.16
2023-01-12T08:48:50.068Z,71.57
2023-01-12T08:51:54.464Z,69.87
2023-01-12T08:54:58.701Z,70.60
2023-01-12T08:58:02.568Z,71.01
2023-01-12T09:01:13.016Z,70.13
2023-01-12T09:04:17.107Z,69.53
2023-01-12T09:07:21.114Z,68.85
2023-01-12T09:10:24.943Z,67.90
2023-01-12T09:13:28.808Z,68.23
2023-01-12T09:16:35.477Z,68.16
2023-01-12T09:19:39.347Z,68.71
2023-01-12T09:22:43.144Z,68.00
2023-01-12T09:25:47.104Z,68.23
2023-01-12T09:28:52.263Z,67.85
2023-01-12T09:31:57.687Z,67.46
2023-01-12T09:35:01.403Z,67.09
2023-01-12T09:38:05.286Z,65.93
2023-01-12T09:41:13.146Z,66.06
2023-01-12T09:44:38.363Z,66.87
2023-01-12T09:47:53.663Z,66.38
2023-01-12T09:51:05.140Z,66.32
2023-01-12T09:54:09.166Z,66.08
2023-01-12T09:57:45.585Z,65.70
2023-01-12T10:00:52.714Z,65.14
2023-01-12T10:03:59.685Z,64.86
2023-01-12T10:07:03.844Z,64.60
2023-01-12T10:10:08.652Z,64.80
2023-01-12T10:13:15.290Z,64.57
2023-01-12T10:16:27.853Z,63.98
2023-01-12T10:19:45.913Z,64.47
2023-01-12T10:22:54.130Z,64.73
2023-01-12T10:26:09.024Z,65.02
2023-01-12T10:29:13.967Z,64.60
2023-01-12T10:32:17.646Z,64.81
2023-01-12T10:35:25.045Z,64.42
2023-01-12T10:38:31.712Z,64.10
2023-01-12T10:41:36.288Z,64.06
2023-01-12T10:44:40.084Z,64.28
2023-01-12T10:47:44.286Z,64.00
2023-01-12T10:51:02.644Z,63.35
2023-01-12T10:54:18.570Z,63.17
2023-01-12T10:57:24.878Z,62.75
2023-01-12T11:00:31.779Z,62.58
2023-01-12T11:03:38.625Z,62.52
2023-01-12T11:06:47.230Z,62.06
2023-01-12T11:09:51.225Z,61.82
2023-01-12T11:12:59.912Z,61.71
2023-01-12T11:16:10.185Z,61.87
2023-01-12T11:19:19.305Z,61.43
2023-01-12T11:22:28.593Z,62.21
2023-01-12T11:25:35.829Z,63.01
2023-01-12T11:28:44.226Z,62.94
2023-01-12T11:31:53.467Z,62.05
2023-01-12T11:35:00.715Z,62.20
2023-01-12T11:38:13.633Z,62.45
2023-01-12T11:41:25.701Z,62.65
2023-01-12T11:44:34.964Z,62.90
2023-01-12T11:47:44.708Z,62.50
2023-01-12T11:50:53.127Z,62.83
2023-01-12T11:53:59.425Z,62.96
2023-01-12T11:57:45.669Z,62.45
2023-01-12T12:01:01.600Z,62.87
2023-01-12T12:04:21.784Z,62.66
2023-01-12T12:07:53.765Z,62.41
2023-01-12T12:11:04.086Z,62.68
2023-01-12T12:14:29.495Z,63.74
2023-01-12T12:17:45.807Z,64.17
2023-01-12T12:21:05.384Z,64.21
2023-01-12T12:24:21.728Z,64.93
2023-01-12T12:27:41.422Z,64.52
2023-01-12T12:31:04.896Z,63.88
2023-01-12T12:34:37.793Z,63.33
2023-01-12T12:37:53.746Z,63.52
2023-01-12T12:41:34.037Z,64.39
2023-01-12T12:45:06.472Z,63.89
2023-01-12T12:48:16.964Z,64.14
2023-01-12T12:51:23.067Z,63.52
2023-01-12T12:54:28.187Z,63.78
2023-01-12T12:57:32.095Z,63.79
2023-01-12T13:00:42.994Z,65.13
2023-01-12T13:03:48.146Z,65.47
2023-01-12T13:06:52.105Z,66.16
2023-01-12T13:10:06.344Z,65.72
2023-01-12T13:13:26.763Z,65.23
2023-01-12T13:16:51.871Z,65.00
2023-01-12T13:20:26.665Z,65.72
2023-01-12T13:23:50.729Z,65.96
2023-01-12T13:26:55.803Z,66.20
2023-01-12T13:30:22.055Z,65.53
2023-01-12T13:33:29.324Z,65.53
2023-01-12T13:36:33.172Z,65.36
2023-01-12T13:39:41.507Z,66.11
2023-01-12T13:43:03.625Z,66.31
2023-01-12T13:46:15.392Z,66.72
2023-01-12T13:49:33.266Z,67.42
2023-01-12T13:52:39.685Z,67.82
2023-01-12T13:55:43.584Z,67.51
2023-01-12T13:58:47.385Z,67.43
2023-01-12T14:01:51.512Z,67.48
2023-01-12T14:05:06.856Z,67.44
2023-01-12T14:08:51.229Z,67.65
2023-01-12T14:12:17.606Z,68.32
2023-01-12T14:15:53.060Z,68.65
2023-01-12T14:18:57.143Z,69.06
2023-01-12T14:22:04.766Z,69.09
2023-01-12T14:25:21.132Z,69.14
2023-01-12T14:28:32.484Z,68.60
2023-01-12T14:31:40.742Z,69.03
2023-01-12T14:34:52.665Z,69.40
2023-01-12T14:38:00.830Z,68.82
2023-01-12T14:41:07.042Z,69.75
2023-01-12T14:44:37.270Z,69.92
2023-01-12T14:47:42.249Z,69.88
2023-01-12T14:51:00.244Z,70.00
2023-01-12T14:54:19.466Z,69.87
2023-01-12T14:57:29.463Z,69.63
2023-01-12T15:00:35.845Z,69.45
2023-01-12T15:03:44.129Z,69.08
2023-01-12T15:06:48.701Z,69.26
2023-01-12T15:09:56.733Z,69.95
2023-01-12T15:13:14.108Z,70.59
2023-01-12T15:16:35.095Z,71.46
2023-01-12T15:19:56.729Z,71.79
2023-01-12T15:23:17.945Z,71.98
2023-01-12T15:26:24.084Z,71.65
2023-01-12T15:29:27.945Z,71.63
2023-01-12T15:32:51.438Z,71.34
2023-01-12T15:35:55.264Z,71.74
2023-01-12T15:38:59.202Z,71.38
2023-01-12T15:42:22.230Z,71.88
2023-01-12T15:45:34.776Z,71.20
2023-01-12T15:48:38.725Z,71.34
2023-01-12T15:51:43.304Z,71.49
2023-01-12T15:54:47.164Z,70.73
2023-01-12T15:57:52.531Z,70.14
2023-01-12T16:00:56.900Z,69.73
2023-01-12T16:04:39.854Z,69.90
2023-01-12T16:07:24.783Z,69.42
2023-01-12T16:10:30.487Z,68.96
2023-01-12T16:13:35.824Z,69.24
2023-01-12T16:16:39.842Z,68.73
2023-01-12T16:19:44.064Z,68.48
2023-01-12T16:22:48.581Z,68.36
2023-01-12T16:25:57.387Z,68.73
2023-01-12T16:29:02.749Z,68.63
2023-01-12T16:32:07.058Z,68.15
2023-01-12T16:35:10.963Z,67.90
2023-01-12T16:38:15.546Z,68.33
2023-01-12T16:41:22.563Z,68.45
2023-01-12T16:44:28.026Z,67.80
2023-01-12T16:47:31.842Z,67.61
2023-01-12T16:50:36.109Z,68.12
2023-01-12T16:53:41.776Z,67.92
2023-01-12T16:56:45.703Z,67.85
2023-01-12T16:59:51.320Z,68.06
2023-01-12T17:02:55.517Z,68.55
2023-01-12T17:05:59.504Z,69.05
2023-01-12T17:09:03.724Z,69.44
2023-01-12T17:12:08.484Z,69.29
2023-01-12T17:15:14.672Z,68.61
2023-01-12T17:18:18.542Z,68.47
2023-01-12T17:21:23.299Z,68.51
2023-01-12T17:24:27.808Z,68.40
2023-01-12T17:27:31.652Z,68.97
2023-01-12T17:30:37.133Z,68.44
2023-01-12T17:33:42.003Z,68.29
2023-01-12T17:36:46.347Z,68.68
2023-01-12T17:39:50.281Z,68.47
2023-01-12T17:43:08.456Z,69.09
2023-01-12T17:46:20.041Z,68.72
2023-01-12T17:49:23.983Z,69.07
2023-01-12T17:52:27.990Z,69.09
2023-01-12T17:55:34.051Z,68.73
2023-01-12T17:58:41.390Z,69.30
2023-01-12T18:01:47.748Z,68.95
2023-01-12T18:04:51.761Z,69.15
2023-01-12T18:07:55.703Z,69.52
2023-01-12T18:11:02.720Z,69.00
2023-01-12T18:14:07.161Z,68.67
2023-01-12T18:17:12.993Z,69.22
2023-01-12T18:20:17.212Z,68.48
2023-01-12T18:23:21.243Z,68.82
2023-01-12T18:26:26.711Z,69.08
2023-01-12T18:29:30.845Z,68.62
2023-01-12T18:32:36.101Z,68.45
2023-01-12T18:35:39.902Z,68.70
2023-01-12T18:38:43.948Z,68.65
2023-01-12T18:42:04.966Z,68.75
2023-01-12T18:45:09.721Z,68.67
2023-01-12T18:48:24.486Z,69.39
2023-01-12T18:51:45.495Z,69.09
2023-01-12T18:54:51.882Z,68.52
2023-01-12T18:57:55.678Z,68.69
2023-01-12T19:01:01.676Z,69.21
2023-01-12T19:04:07.212Z,69.09
2023-01-12T19:07:13.244Z,69.71
2023-01-12T19:10:17.646Z,68.98
2023-01-12T19:13:38.683Z,69.31
2023-01-12T19:17:00.152Z,69.28
2023-01-12T19:20:08.128Z,69.05
2023-01-12T19:23:44.883Z,69.67
2023-01-12T19:27:06.232Z,69.88
2023-01-12T19:30:11.793Z,70.83
2023-01-12T19:33:16.206Z,71.07
2023-01-12T19:36:21.606Z,70.79
2023-01-12T19:39:40.607Z,71.08
2023-01-12T19:43:03.612Z,71.14
2023-01-12T19:46:08.208Z,71.57
2023-01-12T19:49:13.266Z,72.31
2023-01-12T19:52:18.468Z,72.89
2023-01-12T19:55:22.363Z,73.41
2023-01-12T19:58:27.449Z,73.50
2023-01-12T20:01:32.210Z,73.83
2023-01-12T20:04:36.083Z,73.21
2023-01-12T20:07:41.551Z,73.05
2023-01-12T20:10:45.894Z,73.06
2023-01-12T20:13:49.724Z,73.37
2023-01-12T20:16:53.569Z,73.46
2023-01-12T20:19:57.469Z,73.79
2023-01-12T20:23:03.072Z,74.21
2023-01-12T20:26:09.411Z,74.15
2023-01-12T20:29:13.212Z,75.15
2023-01-12T20:32:17.104Z,74.23
2023-01-12T20:35:23.445Z,74.00
2023-01-12T20:38:28.804Z,74.78
2023-01-12T20:41:32.744Z,74.50
2023-01-12T20:44:36.685Z,74.31
2023-01-12T20:47:40.788Z,74.23
2023-01-12T20:50:45.452Z,74.24
2023-01-12T20:53:50.829Z,74.39
2023-01-12T20:56:54.608Z,74.17
2023-01-12T20:59:58.493Z,73.35
2023-01-12T21:03:02.280Z,73.58
2023-01-12T21:06:10.296Z,73.35
2023-01-12T21:09:15.824Z,73.24
2023-01-12T21:12:19.911Z,72.52
2023-01-12T21:15:23.752Z,73.13
2023-01-12T21:18:27.686Z,73.33
2023-01-12T21:21:31.604Z,72.69
2023-01-12T21:24:37.007Z,73.59
2023-01-12T21:27:40.924Z,73.50
2023-01-12T21:30:44.846Z,73.81
2023-01-12T21:33:48.949Z,73.31
2023-01-12T21:36:52.803Z,73.13
2023-01-12T21:39:58.057Z,72.57
2023-01-12T21:43:12.506Z,73.00
2023-01-12T21:46:16.486Z,72.97
2023-01-12T21:49:20.325Z,72.73
2023-01-12T21:52:24.407Z,71.83
2023-01-12T21:55:29.725Z,71.80
2023-01-12T21:58:36.253Z,71.68
2023-01-12T22:01:40.128Z,72.66
2023-01-12T22:04:44.205Z,72.52
2023-01-12T22:07:49.205Z,72.25
2023-01-12T22:10:54.624Z,72.25
2023-01-12T22:13:58.323Z,71.06
2023-01-12T22:17:02.123Z,71.22
2023-01-12T22:20:06.714Z,70.93
2023-01-12T22:23:13.690Z,71.61
2023-01-12T22:26:21.900Z,71.53
2023-01-12T22:29:25.888Z,71.64
2023-01-12T22:32:29.648Z,70.79
2023-01-12T22:35:33.481Z,71.43
2023-01-12T22:38:37.367Z,71.12
2023-01-12T22:41:42.955Z,71.38
2023-01-12T22:44:46.972Z,71.30
2023-01-12T22:47:54.008Z,71.73
2023-01-12T22:51:01.383Z,72.31
2023-01-12T22:54:05.530Z,71.50
2023-01-12T22:57:10.861Z,71.46
2023-01-12T23:00:18.732Z,71.14
2023-01-12T23:03:22.743Z,71.28
2023-01-12T23:06:27.521Z,71.29
2023-01-12T23:09:31.074Z,71.35
2023-01-12T23:12:37.211Z,72.09
2023-01-12T23:15:42.112Z,72.22
2023-01-12T23:18:47.209Z,72.15
2023-01-12T23:21:50.829Z,72.63
2023-01-12T23:24:54.910Z,72.63
2023-01-12T23:28:00.486Z,72.06
2023-01-12T23:31:06.245Z,72.69
2023-01-12T23:34:10.063Z,72.31
2023-01-12T23:37:13.747Z,71.59
2023-01-12T23:40:18.258Z,73.12
2023-01-12T23:43:23.358Z,73.16
2023-01-12T23:46:28.146Z,72.34
2023-01-12T23:49:31.824Z,72.55
2023-01-12T23:52:35.433Z,71.51
2023-01-12T23:55:40.574Z,71.21
2023-01-12T23:58:45.801Z,71.09
